Naples, ID (83847)

8:03 AM PST on February 10, 2016 (GMT -0800)
East side of City Bonners Ferry | | Change Station
CLOSE
Current Station
Personal Weather Station
Location: Bonners Ferry, ID
Elevation: 2216 ft
Nearby Weather Stations

Elev 2216 ft 48.69 °N, 116.30 °W | Updated 4 seconds ago

Light Freezing Fog
Freezing Fog
25.9 °F
Feels Like 26 °F
N
1.1
Wind Variable Wind from SW
Gusts 2.2 mph

Today
High -- | Low -- °F
--% Chance of Precip.
Yesterday
High -- | Low -- °F
Precip. -- in
Pressure 30.27 in
Visibility 0.2 miles
Clouds Overcast 200 ft
Windchill 26 °F
Dew Point 26 °F
Humidity 99%
Rainfall 0.00 in
Snow Depth Not available.
7:01 AM 4:57 PM
Waxing Crescent, 6% visible
METAR K65S 101555Z AUTO 00000KT M1/4SM FZFG OVC002 M03/M03 A3027 RMK AO2
Pressure 30.27 in
Visibility 0.2 miles
Clouds Overcast 200 ft
Windchill 26 °F
Dew Point 26 °F
Humidity 99%
Rainfall 0.00 in
Snow Depth Not available.
7:01 AM 4:57 PM
Waxing Crescent, 6% visible
METAR K65S 101555Z AUTO 00000KT M1/4SM FZFG OVC002 M03/M03 A3027 RMK AO2

10-Day Weather Forecast

Almanac

Astronomy

Feb. 10, 2016 Rise Set
Actual Time
Civil Twilight
Nautical Twilight
Astronomical Twilight
Moon
Length of Visible Light
Length of Day
Tomorrow will be .
, % of the Moon is Illuminated

Today's Extremes

State Highs State Lows

Community

WunderPhotos

Upload Photos

1,891,862 photos uploaded!

WunderBlog® & News

Nearby

Air Quality

  Air Quality AQ Index Pollutant
Not available.

Snow Depth

Station Depth Elevation

Earthquake Activity

City Distance Mag. Time & Date
Minimum magnitude displayed is 2.5.

Coastal Water Temperatures

Place Temperature

Stations

Nearby Weather Stations

Station Location Temp. Windchill Dew Point Humidity Wind Precip. Elev Updated Type
                   

Watches & Warnings

There are currently no watches in effect.